createdAt,value
2019-01-05T00:02:20.830Z,25.67
2019-01-05T00:05:05.905Z,25.40
2019-01-05T00:07:34.822Z,25.07
2019-01-05T00:10:06.501Z,19.37
2019-01-05T00:12:51.471Z,23.40
2019-01-05T00:15:21.033Z,21.03
2019-01-05T00:18:06.030Z,18.73
2019-01-05T00:20:37.942Z,20.50
2019-01-05T00:23:12.362Z,18.00
2019-01-05T00:25:57.915Z,19.90
2019-01-05T00:28:27.103Z,19.47
2019-01-05T00:31:11.014Z,20.30
2019-01-05T00:33:56.990Z,26.57
2019-01-05T00:36:31.902Z,18.50
2019-01-05T00:39:07.258Z,17.00
2019-01-05T00:41:45.876Z,18.80
2019-01-05T00:44:27.105Z,20.17
2019-01-05T00:47:02.355Z,17.17
2019-01-05T00:49:48.030Z,17.37
2019-01-05T00:52:28.762Z,13.30
2019-01-05T00:55:06.754Z,15.00
2019-01-05T00:57:36.250Z,15.77
2019-01-05T01:00:24.118Z,14.03
2019-01-05T01:02:58.954Z,14.50
2019-01-05T01:05:46.014Z,14.83
2019-01-05T01:08:17.558Z,10.67
2019-01-05T01:10:46.481Z,14.07
2019-01-05T01:13:18.383Z,11.83
2019-01-05T01:15:53.237Z,13.83
2019-01-05T01:18:25.346Z,9.23
2019-01-05T01:21:12.698Z,9.87
2019-01-05T01:24:00.179Z,9.13
2019-01-05T01:26:32.570Z,9.60
2019-01-05T01:29:17.525Z,10.70
2019-01-05T01:32:02.762Z,8.13
2019-01-05T01:34:34.620Z,8.53
2019-01-05T01:37:09.335Z,8.63
2019-01-05T01:39:39.494Z,9.20
2019-01-05T01:42:24.907Z,6.93
2019-01-05T01:44:56.463Z,6.93
2019-01-05T01:47:26.917Z,7.73
2019-01-05T01:50:05.088Z,7.83
2019-01-05T01:52:50.493Z,6.50
2019-01-05T01:55:22.493Z,6.93
2019-01-05T01:57:58.520Z,6.93
2019-01-05T02:00:36.986Z,6.43
2019-01-05T02:03:08.905Z,7.97
2019-01-05T02:05:46.985Z,7.70
2019-01-05T02:08:23.001Z,8.20
2019-01-05T02:11:09.510Z,6.63
2019-01-05T02:13:56.154Z,7.03
2019-01-05T02:16:44.494Z,9.20
2019-01-05T02:19:15.238Z,8.67
2019-01-05T02:22:03.614Z,10.47
2019-01-05T02:25:00.873Z,8.17
2019-01-05T02:27:40.149Z,9.43
2019-01-05T02:30:16.278Z,8.40
2019-01-05T02:33:01.344Z,9.77
2019-01-05T02:35:37.454Z,8.40
2019-01-05T02:38:34.755Z,7.37
2019-01-05T02:41:24.334Z,7.80
2019-01-05T02:44:12.729Z,8.03
2019-01-05T02:47:07.122Z,10.47
2019-01-05T02:49:56.688Z,8.70
2019-01-05T02:52:42.045Z,9.13
2019-01-05T02:55:38.069Z,8.83
2019-01-05T02:58:23.191Z,9.50
2019-01-05T03:01:02.325Z,9.23
2019-01-05T03:03:35.319Z,11.60
2019-01-05T03:06:26.611Z,11.40
2019-01-05T03:09:18.769Z,8.50
2019-01-05T03:12:21.814Z,8.50
2019-01-05T03:15:04.096Z,13.40
2019-01-05T03:17:53.552Z,9.57
2019-01-05T03:20:35.401Z,10.90
2019-01-05T03:23:11.641Z,18.20
2019-01-05T03:25:53.998Z,16.60
2019-01-05T03:28:58.568Z,11.67
2019-01-05T03:31:47.941Z,11.47
2019-01-05T03:34:32.943Z,13.97
2019-01-05T03:37:18.152Z,14.40
2019-01-05T03:40:16.421Z,10.43
2019-01-05T03:42:51.972Z,9.83
2019-01-05T03:45:38.761Z,10.47
2019-01-05T03:48:27.237Z,11.67
2019-01-05T03:51:06.443Z,11.77
2019-01-05T03:53:55.839Z,9.50
2019-01-05T03:56:46.002Z,11.40
2019-01-05T03:59:35.418Z,10.77
2019-01-05T04:02:22.150Z,9.90
2019-01-05T04:05:08.473Z,13.97
2019-01-05T04:07:38.902Z,12.07
2019-01-05T04:10:18.005Z,10.53
2019-01-05T04:12:54.402Z,11.60
2019-01-05T04:15:53.378Z,10.40
2019-01-05T04:18:32.691Z,9.87
2019-01-05T04:21:28.413Z,10.30
2019-01-05T04:24:15.429Z,10.13
2019-01-05T04:27:08.137Z,10.33
2019-01-05T04:30:00.918Z,9.30
2019-01-05T04:32:43.380Z,13.43
2019-01-05T04:35:19.422Z,10.23
2019-01-05T04:37:55.822Z,11.80
2019-01-05T04:40:41.154Z,8.20
2019-01-05T04:43:29.781Z,8.00
2019-01-05T04:46:17.873Z,11.87
2019-01-05T04:49:08.916Z,7.30
2019-01-05T04:51:50.938Z,8.67
2019-01-05T04:54:26.979Z,7.80
2019-01-05T04:57:18.501Z,7.03
2019-01-05T05:00:13.914Z,6.60
2019-01-05T05:02:59.069Z,8.13
2019-01-05T05:05:41.389Z,6.47
2019-01-05T05:08:31.205Z,7.80
2019-01-05T05:11:10.490Z,8.67
2019-01-05T05:13:40.943Z,5.73
2019-01-05T05:16:35.982Z,4.83
2019-01-05T05:19:23.162Z,5.20
2019-01-05T05:22:07.758Z,4.60
2019-01-05T05:24:40.965Z,5.00
2019-01-05T05:27:23.326Z,4.53
2019-01-05T05:29:56.626Z,4.30
2019-01-05T05:32:46.582Z,4.40
2019-01-05T05:35:43.278Z,4.80
2019-01-05T05:38:31.483Z,4.47
2019-01-05T05:41:19.821Z,4.90
2019-01-05T05:44:20.379Z,5.03
2019-01-05T05:47:05.692Z,3.53
2019-01-05T05:49:51.182Z,5.07
2019-01-05T05:52:43.870Z,4.30
2019-01-05T05:55:35.144Z,3.90
2019-01-05T05:58:14.254Z,4.20
2019-01-05T06:01:03.890Z,4.53
2019-01-05T06:03:53.749Z,5.20
2019-01-05T06:06:45.004Z,5.37
2019-01-05T06:09:29.570Z,4.97
2019-01-05T06:12:09.110Z,4.23
2019-01-05T06:14:42.223Z,4.60
2019-01-05T06:17:40.662Z,5.67
2019-01-05T06:20:25.480Z,4.70
2019-01-05T06:23:10.650Z,4.90
2019-01-05T06:26:12.622Z,4.90
2019-01-05T06:28:52.216Z,5.33
2019-01-05T06:31:39.197Z,3.80
2019-01-05T06:34:15.316Z,4.53
2019-01-05T06:37:02.045Z,5.23
2019-01-05T06:40:01.258Z,6.03
2019-01-05T06:43:00.085Z,5.13
2019-01-05T06:45:46.794Z,6.77
2019-01-05T06:48:29.133Z,5.70
2019-01-05T06:51:18.677Z,4.73
2019-01-05T06:53:57.978Z,5.73
2019-01-05T06:56:28.402Z,5.30
2019-01-05T06:59:04.547Z,4.53
2019-01-05T07:01:38.158Z,5.90
2019-01-05T07:04:20.410Z,4.10
2019-01-05T07:07:09.961Z,5.33
2019-01-05T07:09:59.783Z,5.80
2019-01-05T07:12:52.369Z,4.30
2019-01-05T07:15:35.014Z,6.07
2019-01-05T07:18:32.244Z,5.00
2019-01-05T07:21:20.702Z,5.40
2019-01-05T07:24:03.019Z,4.60
2019-01-05T07:26:49.943Z,5.60
2019-01-05T07:29:51.994Z,4.80
2019-01-05T07:32:40.181Z,5.30
2019-01-05T07:35:22.207Z,3.90
2019-01-05T07:38:07.466Z,4.90
2019-01-05T07:40:58.650Z,4.43
2019-01-05T07:43:40.711Z,4.90
2019-01-05T07:46:19.838Z,4.07
2019-01-05T07:49:09.811Z,3.80
2019-01-05T07:52:06.162Z,3.57
2019-01-05T07:54:45.453Z,3.40
2019-01-05T07:57:32.423Z,2.97
2019-01-05T08:00:05.914Z,4.20
2019-01-05T08:02:39.138Z,4.80
2019-01-05T08:05:25.589Z,2.90
2019-01-05T08:08:14.445Z,4.13
2019-01-05T08:11:07.177Z,3.37
2019-01-05T08:13:43.835Z,2.70
2019-01-05T08:16:33.537Z,4.20
2019-01-05T08:19:18.955Z,2.93
2019-01-05T08:22:05.624Z,3.17
2019-01-05T08:24:38.714Z,2.70
2019-01-05T08:27:31.136Z,3.40
2019-01-05T08:30:34.263Z,3.00
2019-01-05T08:33:37.851Z,2.70
2019-01-05T08:36:24.454Z,2.20
2019-01-05T08:39:03.962Z,2.43
2019-01-05T08:41:34.408Z,2.40
2019-01-05T08:44:27.353Z,2.90
2019-01-05T08:47:09.620Z,2.50
2019-01-05T08:50:14.892Z,2.07
2019-01-05T08:53:13.697Z,2.50
2019-01-05T08:56:01.818Z,2.47
2019-01-05T08:58:34.927Z,2.17
2019-01-05T09:01:23.691Z,2.13
2019-01-05T09:04:13.099Z,2.43
2019-01-05T09:06:49.322Z,2.27
2019-01-05T09:09:28.557Z,2.57
2019-01-05T09:12:14.038Z,2.20
2019-01-05T09:14:53.181Z,4.23
2019-01-05T09:17:41.561Z,2.30
2019-01-05T09:20:42.053Z,2.33
2019-01-05T09:23:21.110Z,2.70
2019-01-05T09:25:54.473Z,2.30
2019-01-05T09:28:42.610Z,2.37
2019-01-05T09:31:32.575Z,2.40
2019-01-05T09:34:08.836Z,2.97
2019-01-05T09:36:58.624Z,2.53
2019-01-05T09:39:45.318Z,2.93
2019-01-05T09:42:15.775Z,3.37
2019-01-05T09:45:01.306Z,2.83
2019-01-05T09:47:54.619Z,2.93
2019-01-05T09:50:46.797Z,2.60
2019-01-05T09:53:20.026Z,3.90
2019-01-05T09:56:02.005Z,2.60
2019-01-05T09:59:07.049Z,2.73
2019-01-05T10:01:52.369Z,2.70
2019-01-05T10:04:37.890Z,3.10
2019-01-05T10:07:23.043Z,2.67
2019-01-05T10:10:15.439Z,5.93
2019-01-05T10:12:46.130Z,2.70
2019-01-05T10:15:49.266Z,2.50
2019-01-05T10:18:36.143Z,2.70
2019-01-05T10:21:26.749Z,2.50
2019-01-05T10:24:06.045Z,3.13
2019-01-05T10:26:51.411Z,3.13
2019-01-05T10:29:56.430Z,2.60
2019-01-05T10:32:35.732Z,2.40
2019-01-05T10:35:37.492Z,2.77
2019-01-05T10:38:40.884Z,2.30
2019-01-05T10:41:14.077Z,2.97
2019-01-05T10:43:53.332Z,2.77
2019-01-05T10:46:41.645Z,2.40
2019-01-05T10:49:26.977Z,2.50
2019-01-05T10:52:19.745Z,2.30
2019-01-05T10:55:17.087Z,3.03
2019-01-05T10:57:53.018Z,2.70
2019-01-05T11:00:32.232Z,3.20
2019-01-05T11:03:08.648Z,4.53
2019-01-05T11:06:01.440Z,2.80
2019-01-05T11:09:01.013Z,3.20
2019-01-05T11:11:34.453Z,3.00
2019-01-05T11:14:36.468Z,2.93
2019-01-05T11:17:23.163Z,2.57
2019-01-05T11:19:59.361Z,3.07
2019-01-05T11:22:44.483Z,3.97
2019-01-05T11:25:36.127Z,2.90
2019-01-05T11:28:21.965Z,3.53
2019-01-05T11:31:01.446Z,4.20
2019-01-05T11:33:40.962Z,2.63
2019-01-05T11:36:11.659Z,3.07
2019-01-05T11:39:04.383Z,2.30
2019-01-05T11:42:02.796Z,1.80
2019-01-05T11:44:48.352Z,3.27
2019-01-05T11:47:30.386Z,4.43
2019-01-05T11:50:01.006Z,2.30
2019-01-05T11:52:31.454Z,2.53
2019-01-05T11:55:27.101Z,1.70
2019-01-05T11:58:15.533Z,2.33
2019-01-05T12:00:48.487Z,2.17
2019-01-05T12:03:33.893Z,1.83
2019-01-05T12:06:23.561Z,1.70
2019-01-05T12:09:14.644Z,1.63
2019-01-05T12:12:02.841Z,2.00
2019-01-05T12:15:06.131Z,2.37
2019-01-05T12:17:42.554Z,1.80
2019-01-05T12:20:45.918Z,1.60
2019-01-05T12:23:38.661Z,1.70
2019-01-05T12:26:28.239Z,3.47
2019-01-05T12:29:22.691Z,1.47
2019-01-05T12:31:58.978Z,2.37
2019-01-05T12:34:48.645Z,2.37
2019-01-05T12:37:21.717Z,2.27
2019-01-05T12:40:24.975Z,1.87
2019-01-05T12:43:01.196Z,2.60
2019-01-05T12:45:46.329Z,1.90
2019-01-05T12:48:31.817Z,2.37
2019-01-05T12:51:08.007Z,1.70
2019-01-05T12:53:44.017Z,1.90
2019-01-05T12:56:30.592Z,2.10
2019-01-05T12:59:26.587Z,2.40
2019-01-05T13:02:12.104Z,1.73
2019-01-05T13:05:03.637Z,1.90
2019-01-05T13:07:51.990Z,1.97
2019-01-05T13:10:40.333Z,2.87
2019-01-05T13:13:22.464Z,2.43
2019-01-05T13:16:01.262Z,4.10
2019-01-05T13:19:04.573Z,2.10
2019-01-05T13:21:40.714Z,2.07
2019-01-05T13:24:27.258Z,2.10
2019-01-05T13:27:22.792Z,3.40
2019-01-05T13:29:59.183Z,1.63
2019-01-05T13:32:38.313Z,2.00
2019-01-05T13:35:35.563Z,1.93
2019-01-05T13:38:30.064Z,2.20
2019-01-05T13:41:23.984Z,2.10
2019-01-05T13:44:26.986Z,3.80
2019-01-05T13:47:03.390Z,3.50
2019-01-05T13:49:45.958Z,2.47
2019-01-05T13:52:34.090Z,1.87
2019-01-05T13:55:05.808Z,2.57
2019-01-05T13:57:40.950Z,2.50
2019-01-05T14:00:14.220Z,2.30
2019-01-05T14:02:55.413Z,2.30
2019-01-05T14:05:27.143Z,2.70
2019-01-05T14:08:01.723Z,2.47
2019-01-05T14:10:46.703Z,2.33
2019-01-05T14:13:21.342Z,2.77
2019-01-05T14:16:05.382Z,4.87
2019-01-05T14:18:50.599Z,3.97
2019-01-05T14:21:19.510Z,2.63
2019-01-05T14:23:51.133Z,3.23
2019-01-05T14:26:35.351Z,5.50
2019-01-05T14:29:07.142Z,2.50
2019-01-05T14:31:41.737Z,2.90
2019-01-05T14:34:13.054Z,3.73
2019-01-05T14:37:03.471Z,3.40
2019-01-05T14:39:38.211Z,3.50
2019-01-05T14:42:13.177Z,3.57
2019-01-05T14:44:44.736Z,5.40
2019-01-05T14:47:19.340Z,4.30
2019-01-05T14:49:48.223Z,4.33
2019-01-05T14:52:32.042Z,4.63
2019-01-05T14:55:21.721Z,5.00
2019-01-05T14:58:06.913Z,3.97
2019-01-05T15:00:35.817Z,5.53
2019-01-05T15:03:10.623Z,5.57
2019-01-05T15:05:42.488Z,5.20
2019-01-05T15:08:20.130Z,3.80
2019-01-05T15:10:49.044Z,3.83
2019-01-05T15:13:20.874Z,4.00
2019-01-05T15:16:04.577Z,3.63
2019-01-05T15:18:36.148Z,5.20
2019-01-05T15:21:05.058Z,4.00
2019-01-05T15:23:36.664Z,3.87
2019-01-05T15:26:22.020Z,3.50
2019-01-05T15:28:50.906Z,4.20
2019-01-05T15:31:28.962Z,4.73
2019-01-05T15:34:03.627Z,4.80
2019-01-05T15:36:32.800Z,4.47
2019-01-05T15:39:01.709Z,3.87
2019-01-05T15:41:47.086Z,4.00
2019-01-05T15:44:31.123Z,7.60
2019-01-05T15:47:02.853Z,5.10
2019-01-05T15:49:46.834Z,4.40
2019-01-05T15:52:22.003Z,3.87
2019-01-05T15:55:03.166Z,4.17
2019-01-05T15:57:48.061Z,4.40
2019-01-05T16:00:17.238Z,3.73
2019-01-05T16:02:51.919Z,4.10
2019-01-05T16:05:29.925Z,5.33
2019-01-05T16:08:04.738Z,4.23
2019-01-05T16:10:39.736Z,4.77
2019-01-05T16:13:08.898Z,4.10
2019-01-05T16:15:41.207Z,4.00
2019-01-05T16:18:21.949Z,5.37
2019-01-05T16:21:07.042Z,3.83
2019-01-05T16:23:44.862Z,4.40
2019-01-05T16:26:14.382Z,4.47
2019-01-05T16:28:45.968Z,5.50
2019-01-05T16:31:32.755Z,4.80
2019-01-05T16:34:16.272Z,3.90
2019-01-05T16:37:01.434Z,4.30
2019-01-05T16:39:45.489Z,4.60
2019-01-05T16:42:30.493Z,4.33
2019-01-05T16:44:59.401Z,4.10
2019-01-05T16:47:44.630Z,4.53
2019-01-05T16:50:29.617Z,3.90
2019-01-05T16:53:14.639Z,3.97
2019-01-05T16:55:55.382Z,4.63
2019-01-05T16:58:27.246Z,4.43
2019-01-05T17:00:56.234Z,3.80
2019-01-05T17:03:34.497Z,4.37
2019-01-05T17:06:18.069Z,3.60
2019-01-05T17:08:46.983Z,4.50
2019-01-05T17:11:24.906Z,4.23
2019-01-05T17:14:00.146Z,3.63
2019-01-05T17:16:46.014Z,3.70
2019-01-05T17:19:20.851Z,3.03
2019-01-05T17:21:59.135Z,3.80
2019-01-05T17:24:40.050Z,4.23
2019-01-05T17:27:25.382Z,3.37
2019-01-05T17:29:54.337Z,6.53
2019-01-05T17:32:26.659Z,3.40
2019-01-05T17:34:58.303Z,3.30
2019-01-05T17:37:33.227Z,3.80
2019-01-05T17:40:02.097Z,3.30
2019-01-05T17:42:46.906Z,4.30
2019-01-05T17:45:16.162Z,3.33
2019-01-05T17:48:00.601Z,3.60
2019-01-05T17:50:29.481Z,4.10
2019-01-05T17:53:01.309Z,3.53
2019-01-05T17:55:42.443Z,3.73
2019-01-05T17:58:20.403Z,3.23
2019-01-05T18:01:06.082Z,4.23
2019-01-05T18:03:43.524Z,3.00
2019-01-05T18:06:18.678Z,4.40
2019-01-05T18:08:47.895Z,3.13
2019-01-05T18:11:22.802Z,3.70
2019-01-05T18:14:03.776Z,3.30
2019-01-05T18:16:48.730Z,3.43
2019-01-05T18:19:17.643Z,3.70
2019-01-05T18:21:46.617Z,2.70
2019-01-05T18:24:15.620Z,2.87
2019-01-05T18:26:44.506Z,3.97
2019-01-05T18:29:22.220Z,2.90
2019-01-05T18:32:07.299Z,3.43
2019-01-05T18:34:52.287Z,3.60
2019-01-05T18:37:23.963Z,3.30
2019-01-05T18:39:52.878Z,3.50
2019-01-05T18:42:27.690Z,3.50
2019-01-05T18:44:56.925Z,4.57
2019-01-05T18:47:42.028Z,3.77
2019-01-05T18:50:13.709Z,3.30
2019-01-05T18:52:42.657Z,3.30
2019-01-05T18:55:26.633Z,3.57
2019-01-05T18:57:55.603Z,3.60
2019-01-05T19:00:24.484Z,3.90
2019-01-05T19:03:09.762Z,3.17
2019-01-05T19:05:50.856Z,3.67
2019-01-05T19:08:19.855Z,5.27
2019-01-05T19:10:57.554Z,3.90
2019-01-05T19:13:38.316Z,3.37
2019-01-05T19:16:07.250Z,3.60
2019-01-05T19:18:36.430Z,3.73
2019-01-05T19:21:21.663Z,3.50
2019-01-05T19:24:06.993Z,3.30
2019-01-05T19:26:35.950Z,3.50
2019-01-05T19:29:13.809Z,4.30
2019-01-05T19:31:58.920Z,4.90
2019-01-05T19:34:28.090Z,4.13
2019-01-05T19:37:02.707Z,4.13
2019-01-05T19:39:49.877Z,4.07
2019-01-05T19:42:21.427Z,3.80
2019-01-05T19:44:56.078Z,4.60
2019-01-05T19:47:37.202Z,5.20
2019-01-05T19:50:18.410Z,4.17
2019-01-05T19:52:53.094Z,3.60
2019-01-05T19:55:28.081Z,3.43
2019-01-05T19:58:09.100Z,4.30
2019-01-05T20:00:38.075Z,4.00
2019-01-05T20:03:09.758Z,3.83
2019-01-05T20:05:47.610Z,4.00
2019-01-05T20:08:19.234Z,5.77
2019-01-05T20:11:00.149Z,3.80
2019-01-05T20:13:45.461Z,4.30
2019-01-05T20:16:31.143Z,4.10
2019-01-05T20:19:00.308Z,4.40
2019-01-05T20:21:34.655Z,3.80
2019-01-05T20:24:06.274Z,3.80
2019-01-05T20:26:35.266Z,3.87
2019-01-05T20:29:20.243Z,3.80
2019-01-05T20:32:05.145Z,4.20
2019-01-05T20:34:36.747Z,3.70
2019-01-05T20:37:08.693Z,3.70
2019-01-05T20:39:52.694Z,4.27
2019-01-05T20:42:36.226Z,5.03
2019-01-05T20:45:21.474Z,4.07
2019-01-05T20:47:50.645Z,4.30
2019-01-05T20:50:19.791Z,4.13
2019-01-05T20:53:03.567Z,4.77
2019-01-05T20:55:38.523Z,4.93
2019-01-05T20:58:07.414Z,5.00
2019-01-05T21:00:45.260Z,4.60
2019-01-05T21:03:14.172Z,5.63
2019-01-05T21:05:59.771Z,6.03
2019-01-05T21:08:31.357Z,6.37
2019-01-05T21:11:03.178Z,5.73
2019-01-05T21:13:37.806Z,5.50
2019-01-05T21:16:23.157Z,7.10
2019-01-05T21:19:03.598Z,6.07
2019-01-05T21:21:47.601Z,6.73
2019-01-05T21:24:32.546Z,7.00
2019-01-05T21:27:01.538Z,7.30
2019-01-05T21:29:33.134Z,9.03
2019-01-05T21:32:07.988Z,8.43
2019-01-05T21:34:53.194Z,9.67
2019-01-05T21:37:38.753Z,7.47
2019-01-05T21:40:11.545Z,7.13
2019-01-05T21:42:49.280Z,7.40
2019-01-05T21:45:24.127Z,8.63
2019-01-05T21:48:04.879Z,8.10
2019-01-05T21:50:39.710Z,8.73
2019-01-05T21:53:08.864Z,8.37
2019-01-05T21:55:49.722Z,7.90
2019-01-05T21:58:24.571Z,9.40
2019-01-05T22:00:56.777Z,8.30
2019-01-05T22:03:37.581Z,8.87
2019-01-05T22:06:22.786Z,9.93
2019-01-05T22:08:51.918Z,8.57
2019-01-05T22:11:29.694Z,9.37
2019-01-05T22:14:01.259Z,9.33
2019-01-05T22:16:48.258Z,9.27
2019-01-05T22:19:19.813Z,8.17
2019-01-05T22:21:51.544Z,9.87
2019-01-05T22:24:20.464Z,8.43
2019-01-05T22:26:55.533Z,7.87
2019-01-05T22:29:27.634Z,8.63
2019-01-05T22:31:56.795Z,8.37
2019-01-05T22:34:25.709Z,8.13
2019-01-05T22:36:54.877Z,8.20
2019-01-05T22:39:40.162Z,8.20
2019-01-05T22:42:11.710Z,8.60
2019-01-05T22:44:40.593Z,11.50
2019-01-05T22:47:10.918Z,9.33
2019-01-05T22:49:48.850Z,11.50
2019-01-05T22:52:17.840Z,9.53
2019-01-05T22:54:46.978Z,11.33
2019-01-05T22:57:15.893Z,10.70
2019-01-05T23:00:01.669Z,12.03
2019-01-05T23:02:46.896Z,12.37
2019-01-05T23:05:18.799Z,10.87
2019-01-05T23:07:56.562Z,12.80
2019-01-05T23:10:44.474Z,11.07
2019-01-05T23:13:22.789Z,11.17
2019-01-05T23:15:57.722Z,11.60
2019-01-05T23:18:43.066Z,11.47
2019-01-05T23:21:28.383Z,11.40
2019-01-05T23:23:57.306Z,11.67
2019-01-05T23:26:42.475Z,11.10
2019-01-05T23:29:27.825Z,11.30
2019-01-05T23:31:56.958Z,13.77
2019-01-05T23:34:25.878Z,12.70
2019-01-05T23:37:11.146Z,14.60
2019-01-05T23:39:49.006Z,10.70
2019-01-05T23:42:23.647Z,10.60
2019-01-05T23:44:58.595Z,11.80
2019-01-05T23:47:27.763Z,11.97
2019-01-05T23:50:08.991Z,9.73
2019-01-05T23:52:54.478Z,11.33
2019-01-05T23:55:39.489Z,9.67
2019-01-05T23:58:15.690Z,10.40
